Time;durP1;ratioP1;P1;durP2;ratioP2;P2;SDS_P1;SDS_P2;PMS_P1;PMS_P2;Temp;Humidity;BMP_temperature;BMP_pressure;BME280_temperature;BME280_humidity;BME280_pressure;Samples;Min_cycle;Max_cycle;Signal;HPM_P1;HPM_P2
2023/12/07 00:01:57;;;;;;;329.53;53.50;;;0.80;99.90;;;;;;5043351;28;20768;-88
2023/12/07 00:04:23;;;;;;;473.60;62.23;;;0.80;99.90;;;;;;5047942;28;20316;-86
2023/12/07 00:06:50;;;;;;;358.93;56.37;;;0.80;99.90;;;;;;5048857;28;20305;-87
2023/12/07 00:09:18;;;;;;;379.37;55.97;;;0.80;99.90;;;;;;5051222;28;20314;-86
2023/12/07 00:11:45;;;;;;;391.63;58.20;;;0.80;99.90;;;;;;5045899;28;20311;-87
2023/12/07 00:14:12;;;;;;;155.53;45.83;;;0.80;99.90;;;;;;5030926;28;20233;-85
2023/12/07 00:16:39;;;;;;;299.57;54.60;;;0.80;99.90;;;;;;5035956;28;20224;-87
2023/12/07 00:19:06;;;;;;;617.90;73.60;;;0.80;99.90;;;;;;5051516;28;20763;-84
2023/12/07 00:21:32;;;;;;;186.80;48.80;;;0.80;99.90;;;;;;5032648;28;20228;-86
2023/12/07 00:24:01;;;;;;;421.80;56.63;;;0.80;99.90;;;;;;5033811;28;20250;-86
2023/12/07 00:26:29;;;;;;;382.80;57.33;;;0.80;99.90;;;;;;5030598;28;20244;-86
2023/12/07 00:28:55;;;;;;;294.87;54.87;;;0.80;99.90;;;;;;5052122;28;20877;-86
2023/12/07 00:31:22;;;;;;;206.37;48.83;;;0.80;99.90;;;;;;5050243;28;20270;-85
2023/12/07 00:33:49;;;;;;;310.97;53.17;;;0.80;99.90;;;;;;5044816;28;20236;-84
2023/12/07 00:36:16;;;;;;;140.47;45.97;;;0.80;99.90;;;;;;5055536;28;20213;-84
2023/12/07 00:38:43;;;;;;;185.50;47.07;;;0.80;99.90;;;;;;5034398;28;20248;-85
2023/12/07 00:41:09;;;;;;;137.83;45.33;;;0.80;99.90;;;;;;5047666;28;20231;-84
2023/12/07 00:43:37;;;;;;;170.93;47.93;;;0.80;99.90;;;;;;5051584;28;20222;-85
2023/12/07 00:46:04;;;;;;;119.03;45.20;;;0.70;99.90;;;;;;5043355;28;20227;-84
2023/12/07 00:48:31;;;;;;;177.17;46.47;;;0.70;99.90;;;;;;5028277;28;20813;-85
2023/12/07 00:50:58;;;;;;;166.80;45.27;;;0.80;99.90;;;;;;5045475;28;20271;-85
2023/12/07 00:53:24;;;;;;;152.50;45.10;;;0.80;99.90;;;;;;5045376;28;20945;-85
2023/12/07 00:55:51;;;;;;;244.23;51.20;;;0.80;99.90;;;;;;5046015;28;20319;-87
2023/12/07 00:58:18;;;;;;;133.33;47.10;;;0.80;99.90;;;;;;5062081;28;20312;-87
2023/12/07 01:00:46;;;;;;;129.60;47.00;;;0.70;99.90;;;;;;5038902;28;20308;-87
2023/12/07 01:03:13;;;;;;;133.77;49.57;;;0.70;99.90;;;;;;5049034;28;20316;-88
2023/12/07 01:05:39;;;;;;;139.77;46.67;;;0.80;99.90;;;;;;5029831;28;20253;-87
2023/12/07 01:08:06;;;;;;;265.43;50.73;;;0.70;99.90;;;;;;5037083;28;20248;-87
2023/12/07 01:10:33;;;;;;;141.13;47.93;;;0.70;99.90;;;;;;5018456;28;20369;-86
2023/12/07 01:12:59;;;;;;;174.53;47.83;;;0.70;99.90;;;;;;5027469;28;20263;-84
2023/12/07 01:15:27;;;;;;;507.13;69.43;;;0.80;99.90;;;;;;5043245;28;20308;-86
2023/12/07 01:17:55;;;;;;;178.83;48.33;;;0.80;99.90;;;;;;5045355;28;20295;-84
2023/12/07 01:20:21;;;;;;;744.13;89.63;;;0.80;99.90;;;;;;5054829;28;20226;-84
2023/12/07 01:22:48;;;;;;;169.87;47.17;;;0.80;99.90;;;;;;5044483;28;20304;-85
2023/12/07 01:25:19;;;;;;;142.30;45.57;;;0.80;99.90;;;;;;5031171;28;20221;-85
2023/12/07 01:27:46;;;;;;;135.87;47.10;;;0.80;99.90;;;;;;5047583;28;20229;-84
2023/12/07 01:30:13;;;;;;;130.83;46.80;;;0.80;99.90;;;;;;5050714;28;20744;-87
2023/12/07 01:32:40;;;;;;;470.03;64.03;;;0.80;99.90;;;;;;5049315;28;20230;-86
2023/12/07 01:35:09;;;;;;;264.70;54.20;;;0.80;99.90;;;;;;5043975;28;20231;-85
2023/12/07 01:37:36;;;;;;;311.67;53.37;;;0.80;99.90;;;;;;5028469;28;20742;-86
2023/12/07 01:40:05;;;;;;;396.33;58.23;;;0.80;99.90;;;;;;5046980;28;20282;-87
2023/12/07 01:42:32;;;;;;;242.33;51.70;;;0.90;99.90;;;;;;5050621;28;20760;-87
2023/12/07 01:44:59;;;;;;;122.60;46.77;;;0.90;99.90;;;;;;5049973;28;20313;-85
2023/12/07 01:47:25;;;;;;;114.17;44.73;;;0.90;99.90;;;;;;5045607;28;20229;-87
2023/12/07 01:49:53;;;;;;;324.40;57.97;;;0.90;99.90;;;;;;5043454;28;20696;-88
2023/12/07 01:52:22;;;;;;;124.27;45.40;;;0.90;99.90;;;;;;5056634;28;20230;-87
2023/12/07 01:54:48;;;;;;;169.07;48.97;;;0.90;99.90;;;;;;5038230;28;20722;-87
2023/12/07 01:57:16;;;;;;;352.50;60.50;;;0.90;99.90;;;;;;5051867;28;20216;-86
2023/12/07 01:59:42;;;;;;;117.30;45.83;;;0.90;99.90;;;;;;5047028;28;20224;-86
2023/12/07 02:02:09;;;;;;;105.50;43.40;;;0.90;99.90;;;;;;5041674;28;20244;-86
2023/12/07 02:04:36;;;;;;;118.83;45.43;;;0.90;99.90;;;;;;5027036;28;20239;-87
2023/12/07 02:07:05;;;;;;;110.93;44.00;;;0.90;99.90;;;;;;5030613;28;20219;-88
2023/12/07 02:09:33;;;;;;;103.03;43.77;;;0.90;99.90;;;;;;5032200;28;20229;-87
2023/12/07 02:12:01;;;;;;;117.77;43.47;;;0.90;99.90;;;;;;5047664;28;20720;-88
2023/12/07 02:14:28;;;;;;;101.07;43.27;;;0.90;99.90;;;;;;5050778;28;20241;-87
2023/12/07 02:17:01;;;;;;;96.03;42.77;;;0.90;99.90;;;;;;5054916;28;20244;-87
2023/12/07 02:19:50;;;;;;;99.50;42.33;;;0.90;99.90;;;;;;5051184;28;20236;-87
2023/12/07 02:22:29;;;;;;;98.73;41.80;;;0.90;99.90;;;;;;5033799;28;20229;-90
2023/12/07 02:25:07;;;;;;;97.40;43.17;;;0.90;99.90;;;;;;5047268;28;20839;-87
2023/12/07 02:27:37;;;;;;;126.83;44.70;;;0.90;99.90;;;;;;5051277;28;20627;-88
2023/12/07 02:30:06;;;;;;;92.50;42.63;;;0.90;99.90;;;;;;5049687;28;20970;-88
2023/12/07 02:32:33;;;;;;;99.03;41.90;;;0.90;99.90;;;;;;5049812;28;20252;-86
2023/12/07 02:35:01;;;;;;;103.03;42.57;;;1.00;99.90;;;;;;5057879;28;20731;-89
2023/12/07 02:37:33;;;;;;;219.40;47.47;;;1.00;99.90;;;;;;5051836;28;20235;-88
2023/12/07 02:40:00;;;;;;;98.40;42.07;;;1.00;99.90;;;;;;5051597;28;20259;-88
2023/12/07 02:42:28;;;;;;;104.80;43.00;;;1.00;99.90;;;;;;5040401;28;20842;-87
2023/12/07 02:44:57;;;;;;;163.33;44.63;;;1.00;99.90;;;;;;5038470;28;20720;-88
2023/12/07 02:47:24;;;;;;;84.57;39.97;;;1.00;99.90;;;;;;5047544;28;20219;-87
2023/12/07 02:49:51;;;;;;;161.37;44.03;;;1.00;99.90;;;;;;5037029;28;20227;-88
2023/12/07 02:52:17;;;;;;;95.83;41.93;;;1.00;99.90;;;;;;5052472;28;20224;-87
2023/12/07 02:54:44;;;;;;;93.73;40.20;;;1.00;99.90;;;;;;5047839;28;20227;-88
2023/12/07 02:57:11;;;;;;;130.27;42.60;;;1.10;99.90;;;;;;5032847;28;20232;-88
2023/12/07 02:59:38;;;;;;;94.17;42.60;;;1.10;99.90;;;;;;5025915;28;20307;-88
2023/12/07 03:02:06;;;;;;;116.43;43.67;;;1.10;99.90;;;;;;5035334;28;20295;-87
2023/12/07 03:04:33;;;;;;;98.00;41.50;;;1.10;99.90;;;;;;5036629;28;20233;-88
2023/12/07 03:07:00;;;;;;;167.23;46.77;;;1.00;99.90;;;;;;5051141;28;20222;-87
2023/12/07 03:09:27;;;;;;;103.27;42.97;;;1.10;99.90;;;;;;5023312;28;20230;-86
2023/12/07 03:11:53;;;;;;;173.57;44.90;;;1.10;99.90;;;;;;5036747;28;20285;-87
2023/12/07 03:14:20;;;;;;;96.17;42.70;;;1.10;99.90;;;;;;5052905;28;20228;-88
2023/12/07 03:16:47;;;;;;;91.30;40.53;;;1.10;99.90;;;;;;5042773;28;20231;-88
2023/12/07 03:19:15;;;;;;;116.27;42.80;;;1.10;99.90;;;;;;5023641;28;20301;-88
2023/12/07 03:21:42;;;;;;;98.03;42.40;;;1.10;99.90;;;;;;5055016;28;20221;-89
2023/12/07 03:24:10;;;;;;;164.73;43.77;;;1.10;99.90;;;;;;5050159;28;20263;-89
2023/12/07 03:26:37;;;;;;;191.33;46.93;;;1.10;99.90;;;;;;5038661;28;20792;-89
2023/12/07 03:29:04;;;;;;;102.20;41.40;;;1.10;99.90;;;;;;5040427;28;20228;-89
2023/12/07 03:31:31;;;;;;;131.30;44.40;;;1.10;99.90;;;;;;5029700;28;20219;-87
2023/12/07 03:33:59;;;;;;;196.47;46.50;;;1.10;99.90;;;;;;5047638;28;20312;-86
2023/12/07 03:36:27;;;;;;;197.37;46.23;;;1.10;99.90;;;;;;5030626;28;20231;-88
2023/12/07 03:38:54;;;;;;;255.17;51.87;;;1.10;99.90;;;;;;5008889;28;21468;-89
2023/12/07 03:41:21;;;;;;;170.27;44.17;;;1.10;99.90;;;;;;5050182;28;20289;-88
2023/12/07 03:44:05;;;;;;;136.60;43.47;;;1.10;99.90;;;;;;5016950;28;21021;-88
2023/12/07 03:46:32;;;;;;;215.00;45.30;;;1.10;99.90;;;;;;5033536;28;20315;-89
2023/12/07 03:48:59;;;;;;;174.43;45.13;;;1.10;99.90;;;;;;5051262;28;20235;-88
2023/12/07 03:51:31;;;;;;;312.77;51.27;;;1.20;99.90;;;;;;4980516;28;20248;-88
2023/12/07 03:53:58;;;;;;;433.17;62.03;;;1.20;99.90;;;;;;5051921;28;20226;-89
2023/12/07 03:56:25;;;;;;;172.03;47.47;;;1.10;99.90;;;;;;5047460;28;20319;-86
2023/12/07 03:58:53;;;;;;;358.20;54.43;;;1.10;99.90;;;;;;5055150;28;20278;-86
2023/12/07 04:01:23;;;;;;;145.33;45.30;;;1.20;99.90;;;;;;5044895;28;21684;-87
2023/12/07 04:03:50;;;;;;;111.77;41.87;;;1.10;99.90;;;;;;5049848;28;20223;-88
2023/12/07 04:06:18;;;;;;;213.43;47.90;;;1.20;99.90;;;;;;5036863;28;20226;-86
2023/12/07 04:08:46;;;;;;;308.63;53.50;;;1.20;99.90;;;;;;5029809;28;20238;-87
2023/12/07 04:11:14;;;;;;;159.10;42.93;;;1.10;99.90;;;;;;5035749;28;20236;-87
2023/12/07 04:13:41;;;;;;;113.70;42.77;;;1.10;99.90;;;;;;5044316;28;20606;-88
2023/12/07 04:16:09;;;;;;;98.77;42.37;;;1.10;99.90;;;;;;5053762;28;20223;-84
2023/12/07 04:18:36;;;;;;;130.50;43.63;;;1.10;99.90;;;;;;5059615;28;20232;-85
2023/12/07 04:21:04;;;;;;;96.37;42.40;;;1.20;99.90;;;;;;5046165;28;20216;-86
2023/12/07 04:23:32;;;;;;;118.43;43.13;;;1.10;99.90;;;;;;5026397;28;20235;-85
2023/12/07 04:26:00;;;;;;;110.13;41.37;;;1.20;99.90;;;;;;5037629;28;20365;-86
2023/12/07 04:28:27;;;;;;;105.30;42.60;;;1.20;99.90;;;;;;5040416;28;20489;-87
2023/12/07 04:30:54;;;;;;;112.93;44.37;;;1.20;99.90;;;;;;5043670;28;20315;-85
2023/12/07 04:33:21;;;;;;;104.10;43.37;;;1.10;99.90;;;;;;5046223;28;20242;-85
2023/12/07 04:35:48;;;;;;;93.40;41.97;;;1.10;99.90;;;;;;5026425;28;20243;-86
2023/12/07 04:38:15;;;;;;;116.03;41.63;;;1.20;99.90;;;;;;5048713;28;20309;-86
2023/12/07 04:40:42;;;;;;;100.80;42.93;;;1.20;99.90;;;;;;5046949;28;20251;-85
2023/12/07 04:43:11;;;;;;;95.13;40.60;;;1.20;99.90;;;;;;5048971;28;20912;-85
2023/12/07 04:45:38;;;;;;;110.00;43.00;;;1.20;99.90;;;;;;5024941;28;20224;-85
2023/12/07 04:48:05;;;;;;;99.13;42.90;;;1.20;99.90;;;;;;5027026;28;20315;-85
2023/12/07 04:50:32;;;;;;;105.13;43.33;;;1.20;99.90;;;;;;5060967;28;20219;-85
2023/12/07 04:52:59;;;;;;;97.70;43.73;;;1.20;99.90;;;;;;5039378;28;20232;-85
2023/12/07 04:55:26;;;;;;;140.03;46.33;;;1.20;99.90;;;;;;5051425;28;20771;-85
2023/12/07 04:57:53;;;;;;;91.30;42.93;;;1.20;99.90;;;;;;5023677;28;20222;-85
2023/12/07 05:00:22;;;;;;;96.83;41.57;;;1.20;99.90;;;;;;5039897;28;20291;-85
2023/12/07 05:02:49;;;;;;;200.87;48.63;;;1.20;99.90;;;;;;5032772;28;20224;-85
2023/12/07 05:05:16;;;;;;;126.80;45.37;;;1.20;99.90;;;;;;5044507;28;20256;-85
2023/12/07 05:07:42;;;;;;;170.67;44.93;;;1.20;99.90;;;;;;5027579;28;20270;-84
2023/12/07 05:10:10;;;;;;;174.73;45.03;;;1.20;99.90;;;;;;5029352;28;20285;-87
2023/12/07 05:12:36;;;;;;;125.83;42.93;;;1.20;99.90;;;;;;5052058;28;20212;-87
2023/12/07 05:15:04;;;;;;;255.73;53.23;;;1.20;99.90;;;;;;5047887;28;20268;-87
2023/12/07 05:17:32;;;;;;;91.57;41.97;;;1.30;99.90;;;;;;5035031;28;20715;-85
2023/12/07 05:19:59;;;;;;;583.10;67.30;;;1.20;99.90;;;;;;5056453;28;20223;-84
2023/12/07 05:22:25;;;;;;;211.60;48.17;;;1.30;99.90;;;;;;5052072;28;20311;-83
2023/12/07 05:24:52;;;;;;;299.93;51.07;;;1.30;99.90;;;;;;5049549;28;20251;-84
2023/12/07 05:27:19;;;;;;;182.57;46.33;;;1.30;99.90;;;;;;5031933;28;20216;-85
2023/12/07 05:29:46;;;;;;;109.17;41.17;;;1.30;99.90;;;;;;5046084;28;20217;-85
2023/12/07 05:32:13;;;;;;;301.90;51.33;;;1.30;99.90;;;;;;5048894;28;20800;-84
2023/12/07 05:34:41;;;;;;;409.33;56.43;;;1.30;99.90;;;;;;5049019;28;20232;-84
2023/12/07 05:37:09;;;;;;;623.47;70.40;;;1.20;99.90;;;;;;5045243;28;20291;-84
2023/12/07 05:39:36;;;;;;;204.80;46.63;;;1.30;99.90;;;;;;5041029;28;20691;-85
2023/12/07 05:42:04;;;;;;;305.73;51.20;;;1.30;99.90;;;;;;5042972;28;20882;-84
2023/12/07 05:44:31;;;;;;;93.77;39.90;;;1.30;99.90;;;;;;5035196;28;20260;-85
2023/12/07 05:46:58;;;;;;;275.30;49.70;;;1.30;99.90;;;;;;5027978;28;20220;-84
2023/12/07 05:49:25;;;;;;;83.27;40.00;;;1.30;99.90;;;;;;5039437;28;20225;-84
2023/12/07 05:51:53;;;;;;;93.17;38.70;;;1.30;99.90;;;;;;5040512;28;20337;-84
2023/12/07 05:54:22;;;;;;;99.67;39.67;;;1.30;99.90;;;;;;5037903;28;20222;-84
2023/12/07 05:56:49;;;;;;;88.07;39.53;;;1.30;99.90;;;;;;5042078;28;20307;-86
2023/12/07 05:59:16;;;;;;;72.67;37.70;;;1.30;99.90;;;;;;5030546;28;20273;-83
2023/12/07 06:01:43;;;;;;;94.30;36.70;;;1.30;99.90;;;;;;5054208;28;20220;-86
2023/12/07 06:04:12;;;;;;;78.37;36.63;;;1.30;99.90;;;;;;5044113;28;20233;-87
2023/12/07 06:06:38;;;;;;;74.07;37.23;;;1.30;99.90;;;;;;5032524;28;20227;-84
2023/12/07 06:09:07;;;;;;;72.73;36.87;;;1.30;99.90;;;;;;5048702;28;20228;-86
2023/12/07 06:11:34;;;;;;;69.87;36.23;;;1.30;99.90;;;;;;5050744;28;20709;-86
2023/12/07 06:14:01;;;;;;;66.97;35.43;;;1.30;99.90;;;;;;5055866;28;20232;-86
2023/12/07 06:16:28;;;;;;;77.40;33.97;;;1.30;99.90;;;;;;5048197;28;20237;-86
2023/12/07 06:18:55;;;;;;;69.80;34.97;;;1.30;99.90;;;;;;5034586;28;20228;-86
2023/12/07 06:21:22;;;;;;;66.53;33.87;;;1.30;99.90;;;;;;5033689;28;20882;-86
2023/12/07 06:23:48;;;;;;;69.93;36.37;;;1.30;99.90;;;;;;5033596;28;20216;-86
2023/12/07 06:26:17;;;;;;;87.30;36.13;;;1.30;99.90;;;;;;5056135;28;20220;-86
2023/12/07 06:28:44;;;;;;;67.10;33.53;;;1.30;99.90;;;;;;5043759;28;20340;-85
2023/12/07 06:31:12;;;;;;;62.70;34.90;;;1.30;99.90;;;;;;5055148;28;20370;-86
2023/12/07 06:33:39;;;;;;;452.00;60.07;;;1.30;99.90;;;;;;5054489;28;20223;-87
2023/12/07 06:36:06;;;;;;;70.27;37.93;;;1.30;99.90;;;;;;5050940;28;20314;-87
2023/12/07 06:38:33;;;;;;;67.23;36.83;;;1.30;99.90;;;;;;5037940;28;20259;-86
2023/12/07 06:41:00;;;;;;;71.67;37.37;;;1.30;99.90;;;;;;5050958;28;20776;-86
2023/12/07 06:43:28;;;;;;;66.33;36.63;;;1.30;99.90;;;;;;5051534;28;20236;-86
2023/12/07 06:45:55;;;;;;;70.83;37.87;;;1.30;99.90;;;;;;5039707;28;20238;-86
2023/12/07 06:48:22;;;;;;;72.30;39.43;;;1.30;99.90;;;;;;5051791;28;20240;-86
2023/12/07 06:50:49;;;;;;;64.73;36.33;;;1.30;99.90;;;;;;5044035;28;20689;-86
2023/12/07 06:53:18;;;;;;;76.20;34.90;;;1.30;99.90;;;;;;5052143;28;20247;-86
2023/12/07 06:55:45;;;;;;;70.73;35.10;;;1.30;99.90;;;;;;5035791;28;20219;-86
2023/12/07 06:58:12;;;;;;;64.47;33.30;;;1.30;99.90;;;;;;5051354;28;20250;-85
2023/12/07 07:00:41;;;;;;;66.93;35.30;;;1.30;99.90;;;;;;5046794;28;20317;-85
2023/12/07 07:03:07;;;;;;;74.17;34.67;;;1.30;99.90;;;;;;5035393;28;20222;-86
2023/12/07 07:05:34;;;;;;;61.70;32.90;;;1.30;99.90;;;;;;5050993;28;20262;-85
2023/12/07 07:08:01;;;;;;;65.20;34.53;;;1.30;99.90;;;;;;5048900;28;20299;-85
2023/12/07 07:10:28;;;;;;;65.63;34.53;;;1.30;99.90;;;;;;5055134;28;20333;-86
2023/12/07 07:12:54;;;;;;;63.10;35.37;;;1.30;99.90;;;;;;5035426;28;21122;-86
2023/12/07 07:15:23;;;;;;;61.17;33.23;;;1.30;99.90;;;;;;5028889;28;20222;-86
2023/12/07 07:17:51;;;;;;;57.33;32.77;;;1.30;99.90;;;;;;5036173;28;20213;-86
2023/12/07 07:20:18;;;;;;;60.67;33.63;;;1.30;99.90;;;;;;5055392;28;20230;-87
2023/12/07 07:22:45;;;;;;;64.67;33.30;;;1.30;99.90;;;;;;5048129;28;20224;-86
2023/12/07 07:25:11;;;;;;;62.00;32.27;;;1.30;99.90;;;;;;5052914;28;20243;-86
2023/12/07 07:27:39;;;;;;;63.20;35.00;;;1.30;99.90;;;;;;5049987;28;20248;-86
2023/12/07 07:30:08;;;;;;;76.57;36.17;;;1.30;99.90;;;;;;5032022;28;20231;-87
2023/12/07 07:32:34;;;;;;;63.87;34.53;;;1.30;99.90;;;;;;5052559;28;20672;-87
2023/12/07 07:35:03;;;;;;;68.23;37.13;;;1.30;99.90;;;;;;5032899;28;20308;-86
2023/12/07 07:37:30;;;;;;;64.17;34.20;;;1.30;99.90;;;;;;5047984;28;20218;-86
2023/12/07 07:39:57;;;;;;;60.40;33.53;;;1.30;99.90;;;;;;5052993;28;20239;-86
2023/12/07 07:42:23;;;;;;;60.13;32.73;;;1.30;99.90;;;;;;5029704;28;20239;-87
2023/12/07 07:44:50;;;;;;;59.83;32.87;;;1.30;99.90;;;;;;5044506;28;20314;-87
2023/12/07 07:47:17;;;;;;;57.03;32.27;;;1.30;99.90;;;;;;5047135;28;20319;-86
2023/12/07 07:49:44;;;;;;;63.80;35.93;;;1.30;99.90;;;;;;5041536;28;20532;-86
2023/12/07 07:52:12;;;;;;;64.00;33.67;;;1.40;99.90;;;;;;5031522;28;20660;-86
2023/12/07 07:54:39;;;;;;;66.20;36.07;;;1.30;99.90;;;;;;5031911;28;20315;-87
2023/12/07 07:57:06;;;;;;;101.23;36.00;;;1.40;99.90;;;;;;5031146;28;20330;-86
2023/12/07 07:59:33;;;;;;;138.57;37.20;;;1.40;99.90;;;;;;5049408;28;20781;-87
2023/12/07 08:02:00;;;;;;;64.40;34.73;;;1.40;99.90;;;;;;5047768;28;20221;-86
2023/12/07 08:04:27;;;;;;;60.33;33.50;;;1.40;99.90;;;;;;5047636;28;20232;-86
2023/12/07 08:06:53;;;;;;;61.53;32.73;;;1.40;99.90;;;;;;5049557;28;20247;-87
2023/12/07 08:09:22;;;;;;;255.53;44.73;;;1.40;99.90;;;;;;5044670;28;20222;-86
2023/12/07 08:11:48;;;;;;;61.17;34.10;;;1.50;99.90;;;;;;5038425;28;20252;-86
2023/12/07 08:14:15;;;;;;;67.67;33.13;;;1.50;99.90;;;;;;5030606;28;20261;-86
2023/12/07 08:16:46;;;;;;;59.53;32.20;;;1.50;99.90;;;;;;5040386;28;20233;-87
2023/12/07 08:19:14;;;;;;;83.27;35.60;;;1.50;99.90;;;;;;5044201;28;20316;-87
2023/12/07 08:21:41;;;;;;;63.13;33.73;;;1.50;99.90;;;;;;5032525;28;20247;-86
2023/12/07 08:24:08;;;;;;;64.33;33.03;;;1.50;99.90;;;;;;5055142;28;20300;-86
2023/12/07 08:26:36;;;;;;;79.13;34.63;;;1.60;99.90;;;;;;5047366;28;20243;-85
2023/12/07 08:29:02;;;;;;;62.07;34.57;;;1.60;99.90;;;;;;5031784;28;20267;-85
2023/12/07 08:31:29;;;;;;;60.27;33.93;;;1.60;99.90;;;;;;5028976;28;20852;-86
2023/12/07 08:33:56;;;;;;;58.47;32.70;;;1.70;99.90;;;;;;5035654;28;20309;-87
2023/12/07 08:36:23;;;;;;;54.97;33.73;;;1.60;99.90;;;;;;5034120;28;20324;-87
2023/12/07 08:38:50;;;;;;;74.23;37.13;;;1.60;99.90;;;;;;5041485;28;20304;-86
2023/12/07 08:41:17;;;;;;;63.57;34.53;;;1.70;99.90;;;;;;5044955;28;20235;-86
2023/12/07 08:43:45;;;;;;;61.60;34.60;;;1.70;99.90;;;;;;5032061;28;20228;-85
2023/12/07 08:46:12;;;;;;;61.17;34.27;;;1.70;99.90;;;;;;5048167;28;20243;-87
2023/12/07 08:48:39;;;;;;;67.13;35.50;;;1.80;99.90;;;;;;5046669;28;20244;-87
2023/12/07 08:51:08;;;;;;;61.63;34.10;;;1.80;99.90;;;;;;5046842;28;20228;-87
2023/12/07 08:53:35;;;;;;;470.53;190.20;;;1.80;99.90;;;;;;5047545;28;20702;-87
2023/12/07 08:56:02;;;;;;;71.00;40.27;;;1.80;99.90;;;;;;5044988;28;20252;-87
2023/12/07 08:58:29;;;;;;;334.37;144.90;;;1.90;99.90;;;;;;5031848;28;20298;-87
2023/12/07 09:00:57;;;;;;;79.53;41.77;;;1.90;99.90;;;;;;5034802;28;20222;-88
2023/12/07 09:03:27;;;;;;;399.97;146.53;;;1.90;99.90;;;;;;5050226;28;20289;-86
2023/12/07 09:05:54;;;;;;;101.83;47.73;;;2.00;99.90;;;;;;5046347;28;20221;-85
2023/12/07 09:08:20;;;;;;;90.17;43.43;;;2.00;99.90;;;;;;5050375;28;20774;-85
2023/12/07 09:10:49;;;;;;;90.20;48.50;;;2.00;99.90;;;;;;5033686;28;20677;-86
2023/12/07 09:13:16;;;;;;;146.83;69.17;;;2.10;99.90;;;;;;5042155;28;20231;-85
2023/12/07 09:15:43;;;;;;;652.03;330.20;;;2.10;99.90;;;;;;5045977;28;20722;-85
2023/12/07 09:18:11;;;;;;;352.80;161.77;;;2.20;99.90;;;;;;5031433;28;20276;-85
2023/12/07 09:20:45;;;;;;;153.53;72.17;;;2.20;99.90;;;;;;5048167;28;20231;-86
2023/12/07 09:23:12;;;;;;;159.47;64.57;;;2.20;99.90;;;;;;5041173;28;20222;-85
2023/12/07 09:25:39;;;;;;;264.03;95.23;;;2.30;99.90;;;;;;5042961;28;20294;-86
2023/12/07 09:28:05;;;;;;;90.13;43.37;;;2.30;99.90;;;;;;5042676;28;21491;-85
2023/12/07 09:30:33;;;;;;;68.57;38.40;;;2.30;99.90;;;;;;5030864;28;20657;-86
2023/12/07 09:33:02;;;;;;;67.17;36.97;;;2.40;99.90;;;;;;5044762;28;20236;-86
2023/12/07 09:35:30;;;;;;;140.93;79.37;;;2.40;99.90;;;;;;5028872;28;20226;-86
2023/12/07 09:37:57;;;;;;;65.20;37.47;;;2.50;99.90;;;;;;5037808;28;20700;-86
2023/12/07 09:40:25;;;;;;;65.07;38.30;;;2.50;99.90;;;;;;5029819;28;20306;-86
2023/12/07 09:42:52;;;;;;;65.07;37.47;;;2.60;99.90;;;;;;5029408;28;20282;-86
2023/12/07 09:45:20;;;;;;;63.00;36.63;;;2.60;99.90;;;;;;5045815;28;20231;-85
2023/12/07 09:47:49;;;;;;;67.37;37.77;;;2.60;99.90;;;;;;5028581;28;20270;-85
2023/12/07 09:50:18;;;;;;;68.40;38.17;;;2.60;99.90;;;;;;5047240;28;20232;-86
2023/12/07 09:52:48;;;;;;;66.57;37.30;;;2.70;99.90;;;;;;5044151;28;20731;-85
2023/12/07 09:55:17;;;;;;;63.50;36.67;;;2.70;99.90;;;;;;5033592;28;20229;-86
2023/12/07 09:57:44;;;;;;;65.40;35.93;;;2.70;99.90;;;;;;5047024;28;20315;-86
2023/12/07 10:00:14;;;;;;;63.37;37.47;;;2.70;99.90;;;;;;5035815;28;20222;-87
2023/12/07 10:02:42;;;;;;;67.47;37.47;;;2.70;99.90;;;;;;5041916;28;20221;-87
2023/12/07 10:05:13;;;;;;;63.77;38.53;;;2.70;99.90;;;;;;5024041;28;20221;-87
2023/12/07 10:07:42;;;;;;;61.80;38.03;;;2.70;99.90;;;;;;5046742;28;20225;-85
2023/12/07 10:10:12;;;;;;;63.50;38.13;;;2.70;99.90;;;;;;5045713;28;20238;-86
2023/12/07 10:12:49;;;;;;;65.37;38.63;;;2.70;99.90;;;;;;5033608;28;20229;-86
2023/12/07 10:15:17;;;;;;;64.50;36.53;;;2.70;99.90;;;;;;5052560;28;20697;-85
2023/12/07 10:17:52;;;;;;;65.57;38.00;;;2.70;99.90;;;;;;5037104;28;20231;-86
2023/12/07 10:20:23;;;;;;;62.57;37.63;;;2.70;99.90;;;;;;5039263;28;20778;-86
2023/12/07 10:23:01;;;;;;;63.00;39.47;;;2.80;99.90;;;;;;5038379;28;20227;-86
2023/12/07 10:25:30;;;;;;;67.90;38.67;;;2.70;99.90;;;;;;5048484;28;20232;-86
2023/12/07 10:27:57;;;;;;;65.77;37.47;;;2.70;99.90;;;;;;5036935;28;20221;-87
2023/12/07 10:30:25;;;;;;;64.67;37.87;;;2.70;99.90;;;;;;5044428;28;20232;-86
2023/12/07 10:32:53;;;;;;;67.10;39.03;;;2.70;99.90;;;;;;5047479;28;20225;-87
2023/12/07 10:35:20;;;;;;;65.17;37.70;;;2.70;99.90;;;;;;5028222;28;20221;-87
2023/12/07 10:37:47;;;;;;;66.37;39.03;;;2.70;99.90;;;;;;5027186;28;20287;-85
2023/12/07 10:40:15;;;;;;;73.03;40.27;;;2.60;99.90;;;;;;5027338;28;20254;-86
2023/12/07 10:42:48;;;;;;;70.80;39.73;;;2.60;99.90;;;;;;5025963;28;20308;-85
2023/12/07 10:45:16;;;;;;;73.03;40.30;;;2.60;99.90;;;;;;5032399;28;20238;-85
2023/12/07 10:47:46;;;;;;;70.40;40.87;;;2.60;99.90;;;;;;5030985;28;20871;-86
2023/12/07 10:50:17;;;;;;;71.80;39.73;;;2.50;99.90;;;;;;5044696;28;20282;-86
2023/12/07 10:52:47;;;;;;;73.30;38.90;;;2.50;99.90;;;;;;5050061;28;20231;-86
2023/12/07 10:55:18;;;;;;;66.80;38.00;;;2.50;99.90;;;;;;5050730;28;20712;-86
2023/12/07 10:57:48;;;;;;;74.03;39.80;;;2.40;99.90;;;;;;5032786;28;20233;-87
2023/12/07 11:00:16;;;;;;;74.17;39.00;;;2.40;99.90;;;;;;5030006;28;20302;-87
2023/12/07 11:02:44;;;;;;;69.50;40.17;;;2.40;99.90;;;;;;5051265;28;20222;-86
2023/12/07 11:05:12;;;;;;;75.90;39.93;;;2.40;99.90;;;;;;5029648;28;20237;-86
2023/12/07 11:07:48;;;;;;;68.57;39.30;;;2.40;99.90;;;;;;5051776;28;20312;-86
2023/12/07 11:10:25;;;;;;;71.03;39.57;;;2.40;99.90;;;;;;5042757;28;20598;-86
2023/12/07 11:13:00;;;;;;;72.20;40.07;;;2.40;99.90;;;;;;5013008;28;20234;-86
2023/12/07 11:15:28;;;;;;;93.23;55.07;;;2.40;99.90;;;;;;5027792;28;20697;-86
2023/12/07 11:17:57;;;;;;;73.77;43.70;;;2.40;99.90;;;;;;5045189;28;20229;-85
2023/12/07 11:20:40;;;;;;;75.00;42.57;;;2.40;99.90;;;;;;5048790;28;20228;-86
2023/12/07 11:23:08;;;;;;;71.10;39.67;;;2.40;99.90;;;;;;5036142;28;20241;-86
2023/12/07 11:25:35;;;;;;;80.20;45.33;;;2.40;99.90;;;;;;5049896;28;20234;-85
2023/12/07 11:28:04;;;;;;;72.83;40.77;;;2.40;99.90;;;;;;5041520;28;20574;-85
2023/12/07 11:30:33;;;;;;;67.30;39.03;;;2.40;99.90;;;;;;5031814;28;20290;-85
2023/12/07 11:33:01;;;;;;;66.37;39.53;;;2.40;99.90;;;;;;5048812;28;20595;-85
2023/12/07 11:35:28;;;;;;;71.63;39.57;;;2.40;99.90;;;;;;5047678;28;20343;-85
2023/12/07 11:38:03;;;;;;;72.80;41.27;;;2.40;99.90;;;;;;5047085;28;20303;-86
2023/12/07 11:40:31;;;;;;;75.97;40.43;;;2.40;99.90;;;;;;5045768;28;20227;-84
2023/12/07 11:43:00;;;;;;;70.73;39.67;;;2.50;99.90;;;;;;5042853;28;20276;-85
2023/12/07 11:45:49;;;;;;;71.00;39.17;;;2.50;99.90;;;;;;5043490;28;20599;-85
2023/12/07 11:48:18;;;;;;;69.10;40.83;;;2.50;99.90;;;;;;5041342;28;20219;-86
2023/12/07 11:50:59;;;;;;;112.73;72.40;;;2.50;99.90;;;;;;5038822;28;20274;-86
2023/12/07 11:53:29;;;;;;;72.73;41.83;;;2.60;99.90;;;;;;5037719;28;20237;-86
2023/12/07 11:55:57;;;;;;;73.83;41.30;;;2.60;99.90;;;;;;5050024;28;20826;-86
2023/12/07 11:58:24;;;;;;;70.70;39.97;;;2.60;99.90;;;;;;5032227;28;20316;-86
2023/12/07 12:00:54;;;;;;;70.73;39.97;;;2.60;99.90;;;;;;5031700;28;20229;-87
2023/12/07 12:03:21;;;;;;;77.27;40.30;;;2.60;99.90;;;;;;5022515;28;20263;-86
2023/12/07 12:05:48;;;;;;;75.27;41.50;;;2.60;99.90;;;;;;5028010;28;20222;-86
2023/12/07 12:08:17;;;;;;;68.77;41.13;;;2.60;99.90;;;;;;5026691;28;20247;-87
2023/12/07 12:10:44;;;;;;;88.57;52.00;;;2.60;99.90;;;;;;5046684;28;20221;-86
2023/12/07 12:13:11;;;;;;;96.40;59.47;;;2.70;99.90;;;;;;5042088;28;20239;-85
2023/12/07 12:15:39;;;;;;;66.63;40.50;;;2.70;99.90;;;;;;5035202;28;20237;-86
2023/12/07 12:18:08;;;;;;;69.23;41.10;;;2.70;99.90;;;;;;5028251;28;20233;-85
2023/12/07 12:20:36;;;;;;;71.23;43.33;;;2.70;99.90;;;;;;5025089;28;20265;-85
2023/12/07 12:23:02;;;;;;;71.50;39.97;;;2.70;99.90;;;;;;5027749;28;20222;-85
2023/12/07 12:25:31;;;;;;;73.93;43.40;;;2.70;99.90;;;;;;5022118;28;20236;-85
2023/12/07 12:28:00;;;;;;;72.73;41.27;;;2.70;99.90;;;;;;5028190;28;20306;-85
2023/12/07 12:30:28;;;;;;;78.77;45.87;;;2.80;99.90;;;;;;5048350;28;20407;-85
2023/12/07 12:32:55;;;;;;;69.17;43.13;;;2.80;99.90;;;;;;5031535;28;20228;-85
2023/12/07 12:35:24;;;;;;;75.60;44.23;;;2.90;99.90;;;;;;5025904;28;20230;-85
2023/12/07 12:37:51;;;;;;;75.20;43.87;;;2.80;99.90;;;;;;5022354;28;20216;-85